童の目

LUXURY FLIGHT

080-7560-1817

羽田空港本店:東京都大田区羽田空港3-3-2
第1旅客ターミナル5階
営業時間:10:00~20:00 定休日:年中無休
電話番号:080-7560-1817

セントレア店:愛知県常滑市セントレア1-1
FLIGHT OF DREAMS FLIGHT PARK
営業時間:10:00~20:00 定休日:年中無休
電話番号:080-4945-5666

lv

童の目

STAFF BLOG

2020/02/02 童の目

中部よりこんばんは

 

RJGG 020800Z 31013KT 9999 FEW030 BKN/// 10/01 Q1022 NOSIG

 

本日のご紹介は…

 

先日、岡崎からお越しのTさまペア

 

787無料抽選に幸運にもご当選!!!

 

いきなり当選して、本格的なシミュレーターは、初めてとのことですが、
某動画投稿サイトで、日々エアラインパイロットの着陸操作や手順を、

日々食い入るようにご覧になっていらっしゃるのだとかっっ!!

 

まさに当選すべくして当選されたような気がいたします!!

 

これまでのイメトレも、予習も今日の為だったということで!!

もうバッチリでございます

 

さてさて、実際のフライトはと言いますと…

787の慣性がぁぁ~~~と言いつつも、やはり非常に細かく優しいコントロール。

 

上手くできない時の修正までイメトレされておられたようで、

最終進入中、主翼を左右にバタつかせることなく、スムーズに水平に戻し、

まーーーーすぐ、落ち着いてランディング!!!

 

 

 

 

 

img_2296

 

この記念撮影の後も、しばらくキャプテンシートに座ったまま

15分あっという間だったなぁああ~~~と余韻に浸られて、

瞳を輝かせながら…

 

興味津々に、オーバーヘッドパネル→ディスプレイ→スロットルレバー…等々

眺められていた姿は、少年の横顔そのものでした!!!

 

童(わらべ)の目と書いて「瞳」とは、漢字ってよくできているなーと感心した私でした(笑)

 

コクピットに入れば、大人が童心に戻る事ができる、それが「フライトシミュレーター」

 

改めてそう感じた瞬間でした。

 

とても幸せなお時間に立ち会わせて頂きまして、本当にありがとうございました!

 

改めまして、ご当選おめでとうございました!!

 

次回は、ぜひ30分以上の長めのコースを事前にご予約頂いて、

飛行機のシステムを中心にじっくりお話しできればと思います!!

 

 

 

いつもブログをお読みくださり、本当にありがとうございます。

 

 

 

「感謝」

TOP